sensor_id;sensor_type;location;lat;lon;timestamp;pressure;altitude;pressure_sealevel;temperature;humidity
61287;BME280;56412;53.148;8.204;2022-10-26T00:02:06;101577.66;;;17.09;47.99
61287;BME280;56412;53.148;8.204;2022-10-26T00:04:32;101575.06;;;17.09;48.38
61287;BME280;56412;53.148;8.204;2022-10-26T00:06:57;101578.41;;;17.11;48.25
61287;BME280;56412;53.148;8.204;2022-10-26T00:09:22;101576.75;;;17.10;48.48
61287;BME280;56412;53.148;8.204;2022-10-26T00:11:48;101578.41;;;17.11;48.38
61287;BME280;56412;53.148;8.204;2022-10-26T00:14:13;101592.09;;;17.14;48.59
61287;BME280;56412;53.148;8.204;2022-10-26T00:16:38;101579.16;;;17.13;48.58
61287;BME280;56412;53.148;8.204;2022-10-26T00:19:04;101584.16;;;17.16;48.76
61287;BME280;56412;53.148;8.204;2022-10-26T00:21:29;101590.84;;;17.20;48.61
61287;BME280;56412;53.148;8.204;2022-10-26T00:23:54;101581.41;;;17.17;48.64
61287;BME280;56412;53.148;8.204;2022-10-26T00:26:19;101584.91;;;17.18;48.82
61287;BME280;56412;53.148;8.204;2022-10-26T00:28:45;101588.22;;;17.20;48.72
61287;BME280;56412;53.148;8.204;2022-10-26T00:31:14;101586.34;;;17.22;48.74
61287;BME280;56412;53.148;8.204;2022-10-26T00:33:40;101584.44;;;17.24;48.51
61287;BME280;56412;53.148;8.204;2022-10-26T00:36:05;101581.94;;;17.22;48.64
61287;BME280;56412;53.148;8.204;2022-10-26T00:38:33;101585.28;;;17.24;48.78
61287;BME280;56412;53.148;8.204;2022-10-26T00:40:58;101588.81;;;17.23;48.60
61287;BME280;56412;53.148;8.204;2022-10-26T00:45:49;101582.66;;;17.24;48.65
61287;BME280;56412;53.148;8.204;2022-10-26T00:48:23;101588.94;;;17.22;48.81
61287;BME280;56412;53.148;8.204;2022-10-26T00:50:52;101593.22;;;17.23;48.45
61287;BME280;56412;53.148;8.204;2022-10-26T00:53:20;101588.94;;;17.22;48.39
61287;BME280;56412;53.148;8.204;2022-10-26T00:55:47;101590.75;;;17.21;48.58
61287;BME280;56412;53.148;8.204;2022-10-26T00:58:14;101591.88;;;17.17;48.37
61287;BME280;56412;53.148;8.204;2022-10-26T01:00:41;101594.25;;;17.09;48.20
61287;BME280;56412;53.148;8.204;2022-10-26T01:03:07;101586.91;;;17.01;48.40
61287;BME280;56412;53.148;8.204;2022-10-26T01:05:34;101594.25;;;16.96;48.42
61287;BME280;56412;53.148;8.204;2022-10-26T01:08:02;101587.34;;;16.95;48.48
61287;BME280;56412;53.148;8.204;2022-10-26T01:10:27;101587.56;;;16.92;48.38
61287;BME280;56412;53.148;8.204;2022-10-26T01:12:54;101578.25;;;16.88;48.52
61287;BME280;56412;53.148;8.204;2022-10-26T01:15:23;101581.22;;;16.84;48.31
61287;BME280;56412;53.148;8.204;2022-10-26T01:18:00;101583.91;;;16.82;48.28
61287;BME280;56412;53.148;8.204;2022-10-26T01:23:53;101577.03;;;16.81;48.36
61287;BME280;56412;53.148;8.204;2022-10-26T01:26:45;101583.91;;;16.82;48.51
61287;BME280;56412;53.148;8.204;2022-10-26T01:29:34;101579.34;;;16.86;48.38
61287;BME280;56412;53.148;8.204;2022-10-26T01:32:32;101573.47;;;16.82;48.42
61287;BME280;56412;53.148;8.204;2022-10-26T01:37:34;101573.38;;;16.71;48.66
61287;BME280;56412;53.148;8.204;2022-10-26T01:40:08;101567.63;;;16.66;48.77
61287;BME280;56412;53.148;8.204;2022-10-26T01:42:42;101562.38;;;16.66;48.92
61287;BME280;56412;53.148;8.204;2022-10-26T01:45:12;101561.44;;;16.67;48.66
61287;BME280;56412;53.148;8.204;2022-10-26T01:47:39;101554.13;;;16.59;48.92
61287;BME280;56412;53.148;8.204;2022-10-26T01:50:04;101554.00;;;16.61;48.83
61287;BME280;56412;53.148;8.204;2022-10-26T01:52:32;101554.53;;;16.66;48.63
61287;BME280;56412;53.148;8.204;2022-10-26T01:55:01;101550.03;;;16.68;48.73
61287;BME280;56412;53.148;8.204;2022-10-26T01:57:26;101550.53;;;16.73;48.71
61287;BME280;56412;53.148;8.204;2022-10-26T02:02:29;101539.78;;;16.77;49.16
61287;BME280;56412;53.148;8.204;2022-10-26T02:07:49;101543.00;;;16.81;49.40
61287;BME280;56412;53.148;8.204;2022-10-26T02:13:27;101538.53;;;16.83;49.56
61287;BME280;56412;53.148;8.204;2022-10-26T02:15:57;101528.88;;;16.84;49.58
61287;BME280;56412;53.148;8.204;2022-10-26T02:18:38;101528.75;;;16.85;49.47
61287;BME280;56412;53.148;8.204;2022-10-26T02:21:08;101521.66;;;16.87;49.74
61287;BME280;56412;53.148;8.204;2022-10-26T02:23:39;101518.81;;;16.90;49.46
61287;BME280;56412;53.148;8.204;2022-10-26T02:26:07;101516.09;;;16.92;49.90
61287;BME280;56412;53.148;8.204;2022-10-26T02:28:36;101519.31;;;16.95;49.90
61287;BME280;56412;53.148;8.204;2022-10-26T02:31:06;101516.47;;;16.98;49.86
61287;BME280;56412;53.148;8.204;2022-10-26T02:33:36;101517.22;;;17.00;49.74
61287;BME280;56412;53.148;8.204;2022-10-26T02:36:04;101519.09;;;16.98;49.71
61287;BME280;56412;53.148;8.204;2022-10-26T02:38:33;101510.41;;;16.98;50.16
61287;BME280;56412;53.148;8.204;2022-10-26T02:41:01;101505.06;;;16.99;49.78
61287;BME280;56412;53.148;8.204;2022-10-26T02:43:28;101502.44;;;16.99;49.91
61287;BME280;56412;53.148;8.204;2022-10-26T02:45:58;101499.72;;;17.01;50.01
61287;BME280;56412;53.148;8.204;2022-10-26T02:48:30;101489.84;;;17.05;49.91
61287;BME280;56412;53.148;8.204;2022-10-26T02:51:11;101495.00;;;17.06;49.69
61287;BME280;56412;53.148;8.204;2022-10-26T02:53:54;101487.16;;;17.06;49.60
61287;BME280;56412;53.148;8.204;2022-10-26T02:56:27;101490.81;;;17.03;49.82
61287;BME280;56412;53.148;8.204;2022-10-26T02:59:00;101489.03;;;17.04;49.97
61287;BME280;56412;53.148;8.204;2022-10-26T03:01:29;101495.09;;;17.05;49.94
61287;BME280;56412;53.148;8.204;2022-10-26T03:03:56;101493.50;;;17.15;49.78
61287;BME280;56412;53.148;8.204;2022-10-26T03:06:22;101490.66;;;17.18;49.62
61287;BME280;56412;53.148;8.204;2022-10-26T03:08:48;101487.91;;;17.19;49.58
61287;BME280;56412;53.148;8.204;2022-10-26T03:11:14;101488.72;;;17.20;49.67
61287;BME280;56412;53.148;8.204;2022-10-26T03:13:40;101485.19;;;17.21;49.66
61287;BME280;56412;53.148;8.204;2022-10-26T03:16:06;101494.56;;;17.23;49.70
61287;BME280;56412;53.148;8.204;2022-10-26T03:18:32;101488.50;;;17.23;49.37
61287;BME280;56412;53.148;8.204;2022-10-26T03:20:57;101486.00;;;17.21;49.43
61287;BME280;56412;53.148;8.204;2022-10-26T03:23:22;101485.19;;;17.21;49.28
61287;BME280;56412;53.148;8.204;2022-10-26T03:25:47;101481.34;;;17.14;49.69
61287;BME280;56412;53.148;8.204;2022-10-26T03:28:13;101485.75;;;17.13;49.98
61287;BME280;56412;53.148;8.204;2022-10-26T03:30:38;101485.75;;;17.13;49.83
61287;BME280;56412;53.148;8.204;2022-10-26T03:33:03;101486.47;;;17.15;49.76
61287;BME280;56412;53.148;8.204;2022-10-26T03:35:29;101483.94;;;17.14;50.00
61287;BME280;56412;53.148;8.204;2022-10-26T03:37:54;101486.56;;;17.14;49.86
61287;BME280;56412;53.148;8.204;2022-10-26T03:40:19;101492.75;;;17.13;49.70
61287;BME280;56412;53.148;8.204;2022-10-26T03:42:45;101489.19;;;17.14;49.69
61287;BME280;56412;53.148;8.204;2022-10-26T03:45:10;101488.59;;;17.10;49.84
61287;BME280;56412;53.148;8.204;2022-10-26T03:47:42;101486.91;;;17.09;49.92
61287;BME280;56412;53.148;8.204;2022-10-26T03:50:09;101493.81;;;17.10;50.07
61287;BME280;56412;53.148;8.204;2022-10-26T03:52:36;101489.19;;;17.14;49.69
61287;BME280;56412;53.148;8.204;2022-10-26T03:55:01;101484.19;;;17.11;49.81
61287;BME280;56412;53.148;8.204;2022-10-26T03:57:26;101486.78;;;17.11;49.88
61287;BME280;56412;53.148;8.204;2022-10-26T03:59:52;101488.59;;;17.10;49.88
61287;BME280;56412;53.148;8.204;2022-10-26T04:02:17;101486.78;;;17.11;49.85
61287;BME280;56412;53.148;8.204;2022-10-26T04:04:42;101486.69;;;17.12;49.71
61287;BME280;56412;53.148;8.204;2022-10-26T04:07:07;101484.19;;;17.11;49.73
61287;BME280;56412;53.148;8.204;2022-10-26T04:09:33;101483.34;;;17.10;50.16
61287;BME280;56412;53.148;8.204;2022-10-26T04:11:58;101486.78;;;17.11;49.87
61287;BME280;56412;53.148;8.204;2022-10-26T04:14:23;101488.44;;;17.12;49.76
61287;BME280;56412;53.148;8.204;2022-10-26T04:16:48;101487.63;;;17.11;49.70
61287;BME280;56412;53.148;8.204;2022-10-26T04:19:14;101436.06;;;16.76;49.83
61287;BME280;56412;53.148;8.204;2022-10-26T04:21:39;101491.53;;;17.06;49.70
61287;BME280;56412;53.148;8.204;2022-10-26T04:24:04;101487.16;;;17.06;49.98
61287;BME280;56412;53.148;8.204;2022-10-26T04:26:30;101493.44;;;17.03;49.61
61287;BME280;56412;53.148;8.204;2022-10-26T04:28:55;101490.09;;;17.01;49.78
61287;BME280;56412;53.148;8.204;2022-10-26T04:31:20;101500.66;;;17.00;49.57
61287;BME280;56412;53.148;8.204;2022-10-26T04:33:46;101496.50;;;16.97;49.80
61287;BME280;56412;53.148;8.204;2022-10-26T04:36:11;101499.81;;;16.99;49.80
61287;BME280;56412;53.148;8.204;2022-10-26T04:38:36;101503.28;;;17.00;49.52
61287;BME280;56412;53.148;8.204;2022-10-26T04:41:02;101495.75;;;16.95;49.71
61287;BME280;56412;53.148;8.204;2022-10-26T04:43:27;101496.00;;;16.92;49.88
61287;BME280;56412;53.148;8.204;2022-10-26T04:45:55;101489.94;;;16.92;49.76
61287;BME280;56412;53.148;8.204;2022-10-26T04:48:21;101480.50;;;16.89;49.82
61287;BME280;56412;53.148;8.204;2022-10-26T04:50:47;101489.09;;;16.91;49.86
61287;BME280;56412;53.148;8.204;2022-10-26T04:53:12;101483.22;;;16.88;50.00
61287;BME280;56412;53.148;8.204;2022-10-26T04:55:37;101485.84;;;16.88;50.01
61287;BME280;56412;53.148;8.204;2022-10-26T04:58:03;101478.94;;;16.87;49.89
61287;BME280;56412;53.148;8.204;2022-10-26T05:00:29;101484.28;;;16.85;49.80
61287;BME280;56412;53.148;8.204;2022-10-26T05:03:03;101480.72;;;16.86;50.04
61287;BME280;56412;53.148;8.204;2022-10-26T05:05:30;101482.41;;;16.87;49.74
61287;BME280;56412;53.148;8.204;2022-10-26T05:07:57;101481.44;;;16.88;49.77
61287;BME280;56412;53.148;8.204;2022-10-26T05:10:23;101485.13;;;16.86;49.74
61287;BME280;56412;53.148;8.204;2022-10-26T05:12:52;101482.63;;;16.84;49.71
61287;BME280;56412;53.148;8.204;2022-10-26T05:15:18;101471.09;;;16.87;49.60
61287;BME280;56412;53.148;8.204;2022-10-26T05:17:44;101484.06;;;16.88;49.30
61287;BME280;56412;53.148;8.204;2022-10-26T05:20:09;101483.22;;;16.88;49.43
61287;BME280;56412;53.148;8.204;2022-10-26T05:22:37;101479.91;;;16.86;49.13
61287;BME280;56412;53.148;8.204;2022-10-26T05:25:03;101473.09;;;16.83;49.18
61287;BME280;56412;53.148;8.204;2022-10-26T05:27:29;101465.47;;;16.80;49.10
61287;BME280;56412;53.148;8.204;2022-10-26T05:29:54;101476.22;;;16.75;49.23
61287;BME280;56412;53.148;8.204;2022-10-26T05:32:20;101478.34;;;16.70;48.84
61287;BME280;56412;53.148;8.204;2022-10-26T05:34:45;101474.81;;;16.58;48.91
61287;BME280;56412;53.148;8.204;2022-10-26T05:37:10;101472.63;;;16.52;49.06
61287;BME280;56412;53.148;8.204;2022-10-26T05:39:36;101478.91;;;16.50;48.96
61287;BME280;56412;53.148;8.204;2022-10-26T05:42:01;101471.28;;;16.47;48.85
61287;BME280;56412;53.148;8.204;2022-10-26T05:44:26;101466.41;;;16.42;48.92
61287;BME280;56412;53.148;8.204;2022-10-26T05:46:52;101476.13;;;16.40;49.06
61287;BME280;56412;53.148;8.204;2022-10-26T05:49:17;101473.94;;;16.34;48.80
61287;BME280;56412;53.148;8.204;2022-10-26T05:51:42;101469.00;;;16.29;48.97
61287;BME280;56412;53.148;8.204;2022-10-26T05:54:07;101483.78;;;16.30;48.87
61287;BME280;56412;53.148;8.204;2022-10-26T05:56:39;101485.66;;;16.28;49.13
61287;BME280;56412;53.148;8.204;2022-10-26T05:59:12;101481.59;;;16.24;48.86
61287;BME280;56412;53.148;8.204;2022-10-26T06:01:43;101488.19;;;16.17;48.74
61287;BME280;56412;53.148;8.204;2022-10-26T06:04:35;101498.13;;;16.12;49.05
61287;BME280;56412;53.148;8.204;2022-10-26T06:07:02;101497.19;;;16.00;48.88
61287;BME280;56412;53.148;8.204;2022-10-26T06:09:36;101498.66;;;15.92;48.96
61287;BME280;56412;53.148;8.204;2022-10-26T06:12:02;101492.78;;;15.88;49.12
61287;BME280;56412;53.148;8.204;2022-10-26T06:14:28;101505.84;;;15.88;49.35
61287;BME280;56412;53.148;8.204;2022-10-26T06:16:57;101501.47;;;15.88;49.08
61287;BME280;56412;53.148;8.204;2022-10-26T06:19:46;101492.97;;;15.85;49.36
61287;BME280;56412;53.148;8.204;2022-10-26T06:25:04;101504.69;;;15.79;49.26
61287;BME280;56412;53.148;8.204;2022-10-26T06:27:41;101503.66;;;15.82;49.39
61287;BME280;56412;53.148;8.204;2022-10-26T06:30:12;101498.22;;;15.85;49.46
61287;BME280;56412;53.148;8.204;2022-10-26T06:32:37;101506.78;;;15.87;49.19
61287;BME280;56412;53.148;8.204;2022-10-26T06:37:32;101511.72;;;15.92;49.48
61287;BME280;56412;53.148;8.204;2022-10-26T06:40:00;101506.06;;;15.98;49.34
61287;BME280;56412;53.148;8.204;2022-10-26T06:42:26;101510.25;;;16.00;49.24
61287;BME280;56412;53.148;8.204;2022-10-26T06:44:52;101515.97;;;16.05;49.40
61287;BME280;56412;53.148;8.204;2022-10-26T06:47:19;101512.84;;;16.13;49.47
61287;BME280;56412;53.148;8.204;2022-10-26T06:52:34;101520.59;;;16.27;49.36
61287;BME280;56412;53.148;8.204;2022-10-26T06:55:06;101520.03;;;16.35;49.55
61287;BME280;56412;53.148;8.204;2022-10-26T06:57:38;101513.47;;;16.42;49.54
61287;BME280;56412;53.148;8.204;2022-10-26T07:00:13;101514.69;;;16.49;49.70
61287;BME280;56412;53.148;8.204;2022-10-26T07:02:44;101514.03;;;16.58;49.51
61287;BME280;56412;53.148;8.204;2022-10-26T07:05:09;101521.28;;;16.68;49.50
61287;BME280;56412;53.148;8.204;2022-10-26T07:07:39;101514.47;;;16.78;49.61
61287;BME280;56412;53.148;8.204;2022-10-26T07:10:07;101509.75;;;16.83;49.73
61287;BME280;56412;53.148;8.204;2022-10-26T07:12:32;101510.63;;;16.95;49.53
61287;BME280;56412;53.148;8.204;2022-10-26T07:14:58;101515.44;;;17.01;49.62
61287;BME280;56412;53.148;8.204;2022-10-26T07:17:24;101520.53;;;17.02;49.54
61287;BME280;56412;53.148;8.204;2022-10-26T07:19:51;101509.31;;;17.13;49.35
61287;BME280;56412;53.148;8.204;2022-10-26T07:22:16;101514.69;;;17.23;49.13
61287;BME280;56412;53.148;8.204;2022-10-26T07:24:41;101504.63;;;17.30;49.08
61287;BME280;56412;53.148;8.204;2022-10-26T07:27:07;101513.19;;;17.32;49.09
61287;BME280;56412;53.148;8.204;2022-10-26T07:29:32;101510.56;;;17.32;48.96
61287;BME280;56412;53.148;8.204;2022-10-26T07:31:59;101509.41;;;17.36;48.98
61287;BME280;56412;53.148;8.204;2022-10-26T07:34:24;101509.41;;;17.36;48.99
61287;BME280;56412;53.148;8.204;2022-10-26T07:36:49;101510.00;;;17.39;48.99
61287;BME280;56412;53.148;8.204;2022-10-26T07:39:15;101503.81;;;17.40;48.76
61287;BME280;56412;53.148;8.204;2022-10-26T07:41:40;101515.00;;;17.42;48.80
61287;BME280;56412;53.148;8.204;2022-10-26T07:44:06;101511.72;;;17.52;49.00
61287;BME280;56412;53.148;8.204;2022-10-26T07:46:31;101510.88;;;17.51;48.91
61287;BME280;56412;53.148;8.204;2022-10-26T07:48:56;101510.88;;;17.51;48.88
61287;BME280;56412;53.148;8.204;2022-10-26T07:51:22;101509.47;;;17.58;48.88
61287;BME280;56412;53.148;8.204;2022-10-26T07:53:47;101514.38;;;17.63;48.83
61287;BME280;56412;53.148;8.204;2022-10-26T07:56:12;101505.31;;;17.67;48.80
61287;BME280;56412;53.148;8.204;2022-10-26T07:58:38;101506.63;;;17.73;48.74
61287;BME280;56412;53.148;8.204;2022-10-26T08:01:10;101500.56;;;17.72;48.50
61287;BME280;56412;53.148;8.204;2022-10-26T08:03:37;101493.94;;;17.79;48.91
61287;BME280;56412;53.148;8.204;2022-10-26T08:06:03;101499.94;;;17.92;48.49
61287;BME280;56412;53.148;8.204;2022-10-26T08:08:29;101500.28;;;17.99;48.41
61287;BME280;56412;53.148;8.204;2022-10-26T08:10:55;101503.25;;;18.06;47.92
61287;BME280;56412;53.148;8.204;2022-10-26T08:13:21;101503.03;;;18.20;48.02
61287;BME280;56412;53.148;8.204;2022-10-26T08:15:47;101501.38;;;18.30;47.87
61287;BME280;56412;53.148;8.204;2022-10-26T08:18:12;101497.78;;;18.31;47.88
61287;BME280;56412;53.148;8.204;2022-10-26T08:20:38;101509.50;;;18.38;48.04
61287;BME280;56412;53.148;8.204;2022-10-26T08:23:03;101509.00;;;18.45;48.09
61287;BME280;56412;53.148;8.204;2022-10-26T08:25:30;101514.22;;;18.56;47.54
61287;BME280;56412;53.148;8.204;2022-10-26T08:27:59;101515.28;;;18.65;47.62
61287;BME280;56412;53.148;8.204;2022-10-26T08:30:25;101519.22;;;18.70;47.77
61287;BME280;56412;53.148;8.204;2022-10-26T08:32:56;101511.59;;;18.78;47.78
61287;BME280;56412;53.148;8.204;2022-10-26T08:35:22;101507.78;;;18.82;47.74
61287;BME280;56412;53.148;8.204;2022-10-26T08:37:48;101513.50;;;18.88;47.74
61287;BME280;56412;53.148;8.204;2022-10-26T08:40:14;101511.22;;;18.94;47.74
61287;BME280;56412;53.148;8.204;2022-10-26T08:42:44;101507.84;;;19.03;47.77
61287;BME280;56412;53.148;8.204;2022-10-26T08:45:25;101506.53;;;19.09;47.87
61287;BME280;56412;53.148;8.204;2022-10-26T08:47:55;101499.22;;;19.13;47.73
61287;BME280;56412;53.148;8.204;2022-10-26T08:50:32;101493.84;;;19.14;47.78
61287;BME280;56412;53.148;8.204;2022-10-26T08:53:24;101494.44;;;19.18;47.89
61287;BME280;56412;53.148;8.204;2022-10-26T08:56:00;101494.50;;;19.27;47.76
61287;BME280;56412;53.148;8.204;2022-10-26T08:58:40;101501.72;;;19.35;47.57
61287;BME280;56412;53.148;8.204;2022-10-26T09:01:14;101493.94;;;19.45;47.63
61287;BME280;56412;53.148;8.204;2022-10-26T09:03:39;101494.56;;;19.58;47.56
61287;BME280;56412;53.148;8.204;2022-10-26T09:09:12;101490.75;;;19.83;47.42
61287;BME280;56412;53.148;8.204;2022-10-26T09:22:56;101468.13;;;20.32;47.12
61287;BME280;56412;53.148;8.204;2022-10-26T09:25:37;101465.97;;;20.47;47.06
61287;BME280;56412;53.148;8.204;2022-10-26T09:28:04;101467.69;;;20.68;46.71
61287;BME280;56412;53.148;8.204;2022-10-26T09:30:38;101467.00;;;20.85;46.47
61287;BME280;56412;53.148;8.204;2022-10-26T09:33:19;101461.75;;;20.85;46.59
61287;BME280;56412;53.148;8.204;2022-10-26T09:38:38;101464.69;;;21.21;45.49
61287;BME280;56412;53.148;8.204;2022-10-26T09:44:22;101473.84;;;21.36;45.01
61287;BME280;56412;53.148;8.204;2022-10-26T09:46:57;101470.34;;;21.26;45.25
61287;BME280;56412;53.148;8.204;2022-10-26T09:49:41;101474.50;;;21.58;44.94
61287;BME280;56412;53.148;8.204;2022-10-26T09:52:12;101475.25;;;21.87;44.50
61287;BME280;56412;53.148;8.204;2022-10-26T09:54:38;101478.41;;;22.00;43.93
61287;BME280;56412;53.148;8.204;2022-10-26T09:57:04;101484.25;;;21.94;43.91
61287;BME280;56412;53.148;8.204;2022-10-26T09:59:32;101480.56;;;22.15;44.17
61287;BME280;56412;53.148;8.204;2022-10-26T10:05:00;101489.06;;;22.18;43.71
61287;BME280;56412;53.148;8.204;2022-10-26T10:07:26;101489.03;;;22.46;43.28
61287;BME280;56412;53.148;8.204;2022-10-26T10:10:05;101484.47;;;22.66;43.03
61287;BME280;56412;53.148;8.204;2022-10-26T10:12:39;101490.38;;;22.78;42.88
61287;BME280;56412;53.148;8.204;2022-10-26T10:15:12;101493.47;;;22.73;42.52
61287;BME280;56412;53.148;8.204;2022-10-26T10:17:45;101505.91;;;22.63;42.83
61287;BME280;56412;53.148;8.204;2022-10-26T10:20:28;101506.81;;;22.54;42.75
61287;BME280;56412;53.148;8.204;2022-10-26T10:22:59;101510.72;;;22.67;42.84
61287;BME280;56412;53.148;8.204;2022-10-26T10:25:33;101510.59;;;22.69;42.80
61287;BME280;56412;53.148;8.204;2022-10-26T10:28:01;101500.56;;;22.73;42.81
61287;BME280;56412;53.148;8.204;2022-10-26T10:30:54;101504.13;;;22.81;43.00
61287;BME280;56412;53.148;8.204;2022-10-26T10:33:30;101494.88;;;22.67;42.23
61287;BME280;56412;53.148;8.204;2022-10-26T10:35:58;101501.63;;;22.80;42.78
61287;BME280;56412;53.148;8.204;2022-10-26T10:38:24;101513.22;;;22.97;42.44
61287;BME280;56412;53.148;8.204;2022-10-26T10:40:59;101511.00;;;22.92;42.67
61287;BME280;56412;53.148;8.204;2022-10-26T10:43:27;101521.34;;;22.85;42.14
61287;BME280;56412;53.148;8.204;2022-10-26T10:45:54;101525.63;;;22.86;42.36
61287;BME280;56412;53.148;8.204;2022-10-26T10:48:23;101528.75;;;23.00;42.50
61287;BME280;56412;53.148;8.204;2022-10-26T10:50:59;101535.13;;;23.07;42.02
61287;BME280;56412;53.148;8.204;2022-10-26T10:56:21;101527.81;;;23.19;41.77
61287;BME280;56412;53.148;8.204;2022-10-26T10:59:11;101530.75;;;23.33;41.63
61287;BME280;56412;53.148;8.204;2022-10-26T11:05:16;101523.75;;;23.68;41.47
61287;BME280;56412;53.148;8.204;2022-10-26T11:08:10;101521.38;;;23.83;41.31
61287;BME280;56412;53.148;8.204;2022-10-26T11:10:50;101516.66;;;23.95;41.24
61287;BME280;56412;53.148;8.204;2022-10-26T11:13:33;101521.50;;;24.08;41.21
61287;BME280;56412;53.148;8.204;2022-10-26T11:16:04;101532.22;;;23.98;40.85
61287;BME280;56412;53.148;8.204;2022-10-26T11:21:46;101528.13;;;24.03;40.65
61287;BME280;56412;53.148;8.204;2022-10-26T11:24:19;101524.34;;;24.14;40.77
61287;BME280;56412;53.148;8.204;2022-10-26T11:27:25;101520.91;;;24.48;40.35
61287;BME280;56412;53.148;8.204;2022-10-26T11:30:14;101524.09;;;24.60;40.30
61287;BME280;56412;53.148;8.204;2022-10-26T11:33:02;101530.63;;;24.90;40.00
61287;BME280;56412;53.148;8.204;2022-10-26T11:35:57;101536.94;;;25.05;39.72
61287;BME280;56412;53.148;8.204;2022-10-26T11:38:37;101525.38;;;25.14;39.35
61287;BME280;56412;53.148;8.204;2022-10-26T11:41:14;101520.56;;;25.26;39.39
61287;BME280;56412;53.148;8.204;2022-10-26T11:43:46;101526.56;;;25.36;38.60
61287;BME280;56412;53.148;8.204;2022-10-26T11:46:21;101524.88;;;25.60;38.42
61287;BME280;56412;53.148;8.204;2022-10-26T11:49:05;101534.16;;;25.89;37.88
61287;BME280;56412;53.148;8.204;2022-10-26T11:51:40;101530.47;;;26.06;37.93
61287;BME280;56412;53.148;8.204;2022-10-26T11:54:32;101526.66;;;26.00;37.77
61287;BME280;56412;53.148;8.204;2022-10-26T11:57:00;101519.09;;;26.20;37.90
61287;BME280;56412;53.148;8.204;2022-10-26T11:59:29;101516.47;;;26.60;37.49
61287;BME280;56412;53.148;8.204;2022-10-26T12:04:28;101515.31;;;27.08;36.95
61287;BME280;56412;53.148;8.204;2022-10-26T12:06:57;101516.13;;;27.09;35.89
61287;BME280;56412;53.148;8.204;2022-10-26T12:09:28;101525.75;;;27.18;35.50
61287;BME280;56412;53.148;8.204;2022-10-26T12:11:59;101517.09;;;26.93;36.02
61287;BME280;56412;53.148;8.204;2022-10-26T12:14:52;101519.50;;;26.57;36.48
61287;BME280;56412;53.148;8.204;2022-10-26T12:17:34;101513.19;;;26.49;37.06
61287;BME280;56412;53.148;8.204;2022-10-26T12:23:08;101509.38;;;26.44;37.27
61287;BME280;56412;53.148;8.204;2022-10-26T12:25:35;101514.53;;;26.45;37.17
61287;BME280;56412;53.148;8.204;2022-10-26T12:28:00;101511.31;;;26.19;37.35
61287;BME280;56412;53.148;8.204;2022-10-26T12:30:29;101520.13;;;26.11;36.89
61287;BME280;56412;53.148;8.204;2022-10-26T12:33:00;101511.38;;;26.02;37.12
61287;BME280;56412;53.148;8.204;2022-10-26T12:38:00;101519.88;;;26.37;36.50
61287;BME280;56412;53.148;8.204;2022-10-26T12:40:46;101521.69;;;26.99;35.68
61287;BME280;56412;53.148;8.204;2022-10-26T12:45:37;101520.63;;;27.69;35.10
61287;BME280;56412;53.148;8.204;2022-10-26T12:48:03;101516.09;;;28.07;34.22
61287;BME280;56412;53.148;8.204;2022-10-26T12:50:44;101523.25;;;28.07;33.94
61287;BME280;56412;53.148;8.204;2022-10-26T12:53:10;101519.91;;;28.35;33.58
61287;BME280;56412;53.148;8.204;2022-10-26T12:55:46;101528.06;;;28.63;32.62
61287;BME280;56412;53.148;8.204;2022-10-26T12:58:48;101532.91;;;28.74;32.67
61287;BME280;56412;53.148;8.204;2022-10-26T13:01:21;101530.28;;;29.17;31.90
61287;BME280;56412;53.148;8.204;2022-10-26T13:09:58;101535.84;;;31.22;29.37
61287;BME280;56412;53.148;8.204;2022-10-26T13:12:25;101534.41;;;31.33;29.36
61287;BME280;56412;53.148;8.204;2022-10-26T13:14:57;101533.78;;;31.38;29.43
61287;BME280;56412;53.148;8.204;2022-10-26T13:17:28;101536.66;;;31.70;29.05
61287;BME280;56412;53.148;8.204;2022-10-26T13:19:56;101535.19;;;31.80;28.75
61287;BME280;56412;53.148;8.204;2022-10-26T13:22:24;101537.81;;;32.13;28.04
61287;BME280;56412;53.148;8.204;2022-10-26T13:24:51;101532.47;;;32.07;28.18
61287;BME280;56412;53.148;8.204;2022-10-26T13:32:28;101537.72;;;31.42;29.16
61287;BME280;56412;53.148;8.204;2022-10-26T13:34:57;101531.72;;;31.20;28.91
61287;BME280;56412;53.148;8.204;2022-10-26T13:37:26;101534.19;;;31.55;28.84
61287;BME280;56412;53.148;8.204;2022-10-26T13:39:54;101537.69;;;31.22;28.45
61287;BME280;56412;53.148;8.204;2022-10-26T13:42:32;101546.69;;;30.81;29.04
61287;BME280;56412;53.148;8.204;2022-10-26T13:45:29;101540.31;;;30.82;29.54
61287;BME280;56412;53.148;8.204;2022-10-26T13:48:04;101550.84;;;30.01;29.99
61287;BME280;56412;53.148;8.204;2022-10-26T13:56:07;101567.44;;;30.24;29.68
61287;BME280;56412;53.148;8.204;2022-10-26T13:58:47;101564.47;;;30.47;29.94
61287;BME280;56412;53.148;8.204;2022-10-26T14:01:18;101562.63;;;30.54;29.38
61287;BME280;56412;53.148;8.204;2022-10-26T14:03:46;101572.53;;;30.67;29.20
61287;BME280;56412;53.148;8.204;2022-10-26T14:08:59;101570.53;;;30.28;29.95
61287;BME280;56412;53.148;8.204;2022-10-26T14:11:35;101565.59;;;30.25;30.29
61287;BME280;56412;53.148;8.204;2022-10-26T14:14:21;101555.31;;;30.22;29.97
61287;BME280;56412;53.148;8.204;2022-10-26T14:16:50;101564.66;;;30.11;30.39
61287;BME280;56412;53.148;8.204;2022-10-26T14:19:25;101561.06;;;30.25;30.58
61287;BME280;56412;53.148;8.204;2022-10-26T14:22:02;101564.53;;;29.91;30.74
61287;BME280;56412;53.148;8.204;2022-10-26T14:24:29;101567.72;;;29.73;30.84
61287;BME280;56412;53.148;8.204;2022-10-26T14:26:56;101565.97;;;29.87;31.20
61287;BME280;56412;53.148;8.204;2022-10-26T14:29:23;101554.09;;;29.96;30.96
61287;BME280;56412;53.148;8.204;2022-10-26T14:31:50;101566.81;;;29.94;30.99
61287;BME280;56412;53.148;8.204;2022-10-26T14:34:16;101567.00;;;29.86;30.90